createdAt,value
2023-05-03T00:03:14.973Z,69.04
2023-05-03T00:07:17.113Z,69.44
2023-05-03T00:11:18.934Z,69.56
2023-05-03T00:15:20.737Z,69.63
2023-05-03T00:19:31.550Z,69.31
2023-05-03T00:23:33.845Z,69.77
2023-05-03T00:27:36.492Z,69.88
2023-05-03T00:31:38.564Z,69.89
2023-05-03T00:35:40.880Z,69.92
2023-05-03T00:39:42.698Z,70.10
2023-05-03T00:43:44.588Z,69.82
2023-05-03T00:47:46.425Z,70.23
2023-05-03T00:51:48.700Z,70.17
2023-05-03T00:55:54.393Z,70.06
2023-05-03T00:59:57.696Z,70.30
2023-05-03T01:04:04.698Z,70.56
2023-05-03T01:08:14.644Z,70.71
2023-05-03T01:12:42.311Z,70.91
2023-05-03T01:16:50.002Z,70.94
2023-05-03T01:20:53.457Z,70.93
2023-05-03T01:25:14.564Z,71.13
2023-05-03T01:29:16.721Z,71.21
2023-05-03T01:33:31.792Z,71.26
2023-05-03T01:37:33.753Z,71.70
2023-05-03T01:41:37.891Z,71.54
2023-05-03T01:45:40.938Z,71.44
2023-05-03T01:49:42.812Z,71.48
2023-05-03T01:53:44.949Z,71.84
2023-05-03T01:57:46.747Z,71.74
2023-05-03T02:01:48.567Z,72.15
2023-05-03T02:05:50.416Z,72.02
2023-05-03T02:09:52.417Z,72.39
2023-05-03T02:13:54.256Z,72.46
2023-05-03T02:17:56.281Z,72.41
2023-05-03T02:21:58.344Z,72.71
2023-05-03T02:26:00.224Z,73.06
2023-05-03T02:30:02.462Z,73.09
2023-05-03T02:34:11.990Z,73.39
2023-05-03T02:38:14.274Z,73.62
2023-05-03T02:42:16.433Z,73.81
2023-05-03T02:46:19.976Z,73.83
2023-05-03T02:50:21.923Z,73.89
2023-05-03T02:54:24.009Z,74.02
2023-05-03T02:58:27.032Z,73.85
2023-05-03T03:02:29.322Z,74.24
2023-05-03T03:06:31.933Z,74.59
2023-05-03T03:10:34.922Z,74.79
2023-05-03T03:14:37.790Z,75.21
2023-05-03T03:18:39.658Z,75.16
2023-05-03T03:22:43.914Z,75.03
2023-05-03T03:26:46.454Z,75.71
2023-05-03T03:30:48.645Z,75.44
2023-05-03T03:34:58.194Z,75.55
2023-05-03T03:39:00.847Z,75.85
2023-05-03T03:43:02.730Z,76.22
2023-05-03T03:47:05.906Z,76.64
2023-05-03T03:51:08.575Z,76.48
2023-05-03T03:55:17.166Z,76.50
2023-05-03T03:59:22.522Z,76.49
2023-05-03T04:03:24.665Z,76.04
2023-05-03T04:07:27.140Z,76.36
2023-05-03T04:11:29.017Z,76.12
2023-05-03T04:15:34.708Z,76.04
2023-05-03T04:19:38.955Z,76.34
2023-05-03T04:23:42.011Z,76.40
2023-05-03T04:27:47.642Z,76.89
2023-05-03T04:31:51.606Z,76.97
2023-05-03T04:35:54.085Z,77.00
2023-05-03T04:39:56.127Z,76.94
2023-05-03T04:43:58.007Z,76.96
2023-05-03T04:48:00.176Z,77.24
2023-05-03T04:52:02.283Z,77.47
2023-05-03T04:56:04.561Z,77.23
2023-05-03T05:00:12.893Z,77.57
2023-05-03T05:04:20.033Z,77.54
2023-05-03T05:08:24.942Z,77.29
2023-05-03T05:12:30.714Z,77.00
2023-05-03T05:16:37.447Z,76.84
2023-05-03T05:20:39.751Z,76.76
2023-05-03T05:24:41.935Z,76.16
2023-05-03T05:28:46.476Z,75.62
2023-05-03T05:32:48.390Z,75.41
2023-05-03T05:36:52.356Z,74.99
2023-05-03T05:40:57.755Z,74.60
2023-05-03T05:44:59.876Z,74.32
2023-05-03T05:49:02.213Z,74.10
2023-05-03T05:53:04.152Z,73.67
2023-05-03T05:57:11.113Z,73.57
2023-05-03T06:01:13.130Z,73.34
2023-05-03T06:05:16.655Z,73.11
2023-05-03T06:13:27.371Z,72.81
2023-05-03T06:17:30.442Z,72.34
2023-05-03T06:21:32.470Z,72.15
2023-05-03T06:25:38.590Z,71.54
2023-05-03T06:29:41.131Z,71.10
2023-05-03T06:33:43.168Z,70.73
2023-05-03T06:37:45.706Z,70.72
2023-05-03T06:41:47.750Z,70.33
2023-05-03T06:45:52.551Z,69.51
2023-05-03T06:49:55.221Z,69.66
2023-05-03T06:54:00.609Z,69.44
2023-05-03T06:58:02.496Z,68.89
2023-05-03T07:02:04.385Z,68.62
2023-05-03T07:06:06.406Z,68.01
2023-05-03T07:10:08.651Z,67.66
2023-05-03T07:14:10.749Z,67.22
2023-05-03T07:18:12.900Z,66.78
2023-05-03T07:22:15.166Z,66.88
2023-05-03T07:26:16.994Z,66.00
2023-05-03T07:30:19.199Z,65.91
2023-05-03T07:34:21.459Z,65.62
2023-05-03T07:38:23.355Z,65.01
2023-05-03T07:42:25.196Z,64.42
2023-05-03T07:46:27.451Z,63.93
2023-05-03T07:50:29.441Z,63.19
2023-05-03T07:54:31.448Z,63.29
2023-05-03T07:58:40.162Z,63.21
2023-05-03T08:02:43.076Z,62.76
2023-05-03T08:06:45.090Z,63.01
2023-05-03T08:10:47.827Z,62.29
2023-05-03T08:14:49.612Z,61.87
2023-05-03T08:18:51.929Z,61.67
2023-05-03T08:22:56.987Z,61.74
2023-05-03T08:26:59.223Z,61.61
2023-05-03T08:31:03.950Z,61.63
2023-05-03T08:35:07.553Z,61.78
2023-05-03T08:39:10.548Z,61.48
2023-05-03T08:43:16.149Z,61.21
2023-05-03T08:47:18.011Z,60.86
2023-05-03T08:51:21.708Z,60.55
2023-05-03T08:55:23.570Z,60.38
2023-05-03T08:59:27.604Z,60.29
2023-05-03T09:03:29.599Z,59.84
2023-05-03T09:07:31.454Z,60.16
2023-05-03T09:11:34.434Z,59.80
2023-05-03T09:15:36.758Z,59.46
2023-05-03T09:19:54.455Z,59.05
2023-05-03T09:23:56.465Z,59.17
2023-05-03T09:28:02.120Z,59.60
2023-05-03T09:32:06.199Z,59.21
2023-05-03T09:36:08.537Z,58.72
2023-05-03T09:40:11.930Z,58.99
2023-05-03T09:44:14.054Z,58.37
2023-05-03T09:48:16.754Z,58.33
2023-05-03T09:52:20.148Z,58.17
2023-05-03T09:56:26.693Z,57.92
2023-05-03T10:00:30.930Z,58.11
2023-05-03T10:04:53.976Z,57.10
2023-05-03T10:09:06.133Z,57.45
2023-05-03T10:13:08.947Z,57.65
2023-05-03T10:17:43.528Z,57.42
2023-05-03T10:21:56.747Z,56.71
2023-05-03T10:26:08.641Z,56.65
2023-05-03T10:30:28.800Z,56.31
2023-05-03T10:34:35.132Z,56.28
2023-05-03T10:38:37.580Z,56.53
2023-05-03T10:42:44.310Z,56.09
2023-05-03T10:46:46.757Z,56.07
2023-05-03T10:50:49.336Z,55.51
2023-05-03T10:54:51.282Z,55.58
2023-05-03T10:58:57.042Z,55.54
2023-05-03T11:03:11.418Z,54.39
2023-05-03T11:07:22.866Z,54.72
2023-05-03T11:11:24.777Z,54.80
2023-05-03T11:15:26.818Z,54.54
2023-05-03T11:19:29.112Z,54.63
2023-05-03T11:23:31.020Z,54.71
2023-05-03T11:27:32.812Z,54.29
2023-05-03T11:31:35.888Z,54.63
2023-05-03T11:35:38.366Z,54.14
2023-05-03T11:39:41.876Z,54.42
2023-05-03T11:43:55.010Z,54.17
2023-05-03T11:48:00.281Z,54.03
2023-05-03T11:52:02.365Z,53.61
2023-05-03T11:56:04.352Z,53.12
2023-05-03T12:00:17.244Z,53.33
2023-05-03T12:04:19.676Z,53.00
2023-05-03T12:08:23.547Z,52.79
2023-05-03T12:12:30.792Z,52.94
2023-05-03T12:16:53.426Z,52.33
2023-05-03T12:21:30.463Z,52.18
2023-05-03T12:25:20.930Z,51.94
2023-05-03T12:29:24.930Z,52.09
2023-05-03T12:33:28.574Z,51.58
2023-05-03T12:37:33.378Z,51.77
2023-05-03T12:42:05.332Z,51.67
2023-05-03T12:46:25.182Z,51.98
2023-05-03T12:50:24.577Z,52.31
2023-05-03T12:54:27.549Z,52.58
2023-05-03T13:06:42.839Z,53.09
2023-05-03T13:10:45.586Z,53.24
2023-05-03T13:14:51.530Z,53.03
2023-05-03T13:18:55.456Z,52.83
2023-05-03T13:22:58.154Z,52.99
2023-05-03T13:26:59.985Z,53.06
2023-05-03T13:31:01.976Z,52.52
2023-05-03T13:35:05.864Z,52.82
2023-05-03T13:39:10.597Z,52.64
2023-05-03T13:43:12.477Z,53.08
2023-05-03T13:47:15.121Z,52.78
2023-05-03T13:51:17.172Z,52.67
2023-05-03T13:55:19.003Z,52.89
2023-05-03T13:59:20.831Z,52.78
2023-05-03T14:03:23.130Z,52.62
2023-05-03T14:07:25.117Z,52.57
2023-05-03T14:11:27.486Z,52.17
2023-05-03T14:15:29.460Z,52.36
2023-05-03T14:19:34.554Z,52.52
2023-05-03T14:23:36.386Z,52.58
2023-05-03T14:27:38.563Z,52.02
2023-05-03T14:31:40.722Z,52.01
2023-05-03T14:35:42.853Z,51.71
2023-05-03T14:39:44.688Z,52.08
2023-05-03T14:43:47.506Z,51.77
2023-05-03T14:47:49.442Z,51.63
2023-05-03T14:51:54.202Z,51.76
2023-05-03T14:55:58.045Z,51.80
2023-05-03T15:00:05.031Z,51.85
2023-05-03T15:04:10.819Z,51.72
2023-05-03T15:08:17.298Z,51.68
2023-05-03T15:12:19.172Z,52.04
2023-05-03T15:16:21.302Z,52.14
2023-05-03T15:20:23.124Z,52.38
2023-05-03T15:24:25.215Z,52.01
2023-05-03T15:28:27.087Z,52.39
2023-05-03T15:32:28.886Z,51.92
2023-05-03T15:36:31.934Z,52.17
2023-05-03T15:40:33.889Z,52.34
2023-05-03T15:44:35.861Z,52.22
2023-05-03T15:48:37.816Z,52.17
2023-05-03T15:52:40.021Z,52.38
2023-05-03T15:56:41.972Z,52.34
2023-05-03T16:00:44.064Z,52.33
2023-05-03T16:04:46.771Z,52.73
2023-05-03T16:08:49.706Z,52.64
2023-05-03T16:12:51.571Z,52.90
2023-05-03T16:16:54.501Z,52.16
2023-05-03T16:20:56.302Z,52.64
2023-05-03T16:24:58.121Z,52.46
2023-05-03T16:29:01.095Z,52.80
2023-05-03T16:33:03.540Z,52.62
2023-05-03T16:37:05.691Z,52.72
2023-05-03T16:41:07.605Z,53.34
2023-05-03T16:45:10.882Z,53.42
2023-05-03T16:49:12.838Z,53.18
2023-05-03T16:53:14.619Z,53.26
2023-05-03T16:57:16.440Z,53.44
2023-05-03T17:01:18.789Z,53.48
2023-05-03T17:05:20.677Z,54.00
2023-05-03T17:09:22.744Z,54.16
2023-05-03T17:13:25.020Z,54.38
2023-05-03T17:17:26.803Z,54.53
2023-05-03T17:21:28.641Z,54.44
2023-05-03T17:25:30.717Z,54.42
2023-05-03T17:29:32.560Z,54.40
2023-05-03T17:33:35.023Z,54.80
2023-05-03T17:37:37.808Z,55.19
2023-05-03T17:41:39.594Z,55.52
2023-05-03T17:45:41.962Z,55.85
2023-05-03T17:49:43.909Z,55.57
2023-05-03T17:53:45.674Z,55.87
2023-05-03T17:57:47.573Z,56.30
2023-05-03T18:01:49.474Z,56.63
2023-05-03T18:05:51.325Z,56.67
2023-05-03T18:09:53.118Z,57.11
2023-05-03T18:13:54.934Z,57.13
2023-05-03T18:17:57.441Z,57.78
2023-05-03T18:21:59.350Z,57.63
2023-05-03T18:26:01.186Z,58.30
2023-05-03T18:30:06.894Z,58.19
2023-05-03T18:34:09.016Z,58.64
2023-05-03T18:38:10.905Z,58.39
2023-05-03T18:42:13.217Z,58.89
2023-05-03T18:46:21.480Z,59.28
2023-05-03T18:50:23.277Z,59.10
2023-05-03T18:54:25.133Z,59.52
2023-05-03T18:58:26.972Z,59.64
2023-05-03T19:02:31.445Z,60.03
2023-05-03T19:06:33.530Z,60.27
2023-05-03T19:10:35.301Z,60.43
2023-05-03T19:14:43.043Z,60.79
2023-05-03T19:18:45.615Z,60.97
2023-05-03T19:22:47.753Z,60.95
2023-05-03T19:26:49.650Z,61.16
2023-05-03T19:30:52.205Z,61.64
2023-05-03T19:34:54.101Z,61.94
2023-05-03T19:38:56.101Z,61.55
2023-05-03T19:42:57.975Z,62.04
2023-05-03T19:46:59.824Z,61.96
2023-05-03T19:51:02.655Z,62.00
2023-05-03T19:55:07.751Z,61.80
2023-05-03T19:59:09.578Z,61.99
2023-05-03T20:03:11.671Z,61.71
2023-05-03T20:07:13.561Z,62.22
2023-05-03T20:11:15.366Z,62.15
2023-05-03T20:15:17.169Z,61.80
2023-05-03T20:19:18.959Z,61.54
2023-05-03T20:23:21.067Z,61.40
2023-05-03T20:27:22.858Z,61.54
2023-05-03T20:31:24.843Z,61.84
2023-05-03T20:35:26.795Z,61.29
2023-05-03T20:39:28.962Z,61.67
2023-05-03T20:43:30.986Z,61.67
2023-05-03T20:47:32.758Z,61.74
2023-05-03T20:51:34.608Z,61.82
2023-05-03T20:55:36.397Z,61.82
2023-05-03T20:59:38.225Z,61.96
2023-05-03T21:03:40.205Z,61.85
2023-05-03T21:07:42.277Z,61.94
2023-05-03T21:11:44.386Z,62.08
2023-05-03T21:15:46.363Z,62.05
2023-05-03T21:19:48.194Z,62.58
2023-05-03T21:23:50.078Z,62.50
2023-05-03T21:27:51.974Z,62.65
2023-05-03T21:31:53.906Z,63.15
2023-05-03T21:35:55.835Z,63.00
2023-05-03T21:40:05.426Z,63.40
2023-05-03T21:44:07.598Z,63.72
2023-05-03T21:48:09.535Z,63.82
2023-05-03T21:52:11.498Z,64.30
2023-05-03T21:56:14.005Z,64.62
2023-05-03T22:00:19.927Z,64.60
2023-05-03T22:04:21.917Z,64.77
2023-05-03T22:08:24.190Z,65.16
2023-05-03T22:12:26.506Z,65.37
2023-05-03T22:16:28.519Z,65.41
2023-05-03T22:20:30.423Z,65.51
2023-05-03T22:24:32.230Z,65.60
2023-05-03T22:28:34.080Z,65.99
2023-05-03T22:32:36.073Z,66.22
2023-05-03T22:36:38.288Z,66.67
2023-05-03T22:40:40.050Z,66.82
2023-05-03T22:44:41.966Z,66.98
2023-05-03T22:48:43.823Z,67.37
2023-05-03T22:52:45.632Z,67.02
2023-05-03T22:56:47.470Z,67.51
2023-05-03T23:00:49.306Z,67.56
2023-05-03T23:04:51.129Z,67.83
2023-05-03T23:08:52.949Z,67.93
2023-05-03T23:12:55.407Z,68.58
2023-05-03T23:16:57.830Z,68.37
2023-05-03T23:21:00.115Z,68.64
2023-05-03T23:25:02.189Z,69.07
2023-05-03T23:29:03.982Z,69.19
2023-05-03T23:33:06.367Z,69.15
2023-05-03T23:37:08.550Z,69.09
2023-05-03T23:41:10.415Z,69.27
2023-05-03T23:45:12.588Z,69.77
2023-05-03T23:49:14.413Z,69.81
2023-05-03T23:53:16.355Z,70.26
2023-05-03T23:57:18.191Z,70.23
